Bertrand, Nebraska
Current Conditions -  °F | °C
As of 12:35 PM on Monday 20 Oct 2014 (Local Time) from KHDE Reporting Station
Clear Clear  
Wind Chill: 68°   Ceiling: Unl
Heat Index: 68°   Visibility: 10mi
Dew Point: 42°   Wind: 0mph
Humidity: 39%   Direction: NA
Pressure: 30.13"   Gusts: NA
Location:  40.53°N, 99.63°W
Report Text: KHDE 201735Z AUTO 00000KT 10SM CLR 20/06 A3013 RMK AO2 T01990056
Loading
Personal Weather Stations






























Interactive Weather Map
Tropical Storm Tracking
New forecast layout! Learn more

10-Day Weather Forecast

Advertisements
Track Severe Weather on mobile